Terminal Aerodrome Forecast
Issued by NWS Shreveport, LA

Home | Current Version | Previous Version | Text Only | Print | Product List | Glossary On
Versions: 1 2 3 4 5 6 7 8 9 10 11 12 13
300
FTUS44 KSHV 251750
TAFTXK
TAF
KTXK 251750Z 2518/2618 07004KT P6SM SCT035
     FM252100 09005KT P6SM SCT045 BKN250
     FM260000 VRB03KT P6SM SCT050 BKN250
     FM261100 VRB03KT 5SM BR BKN250
     FM261400 VRB03KT P6SM SCT035 BKN250=

USA.gov is the U.S. government's official web portal to all federal, state and local government web resources and services.